Latest Weather Observations for Mount Lofty

IDS60901

Issued at 9:01 pm CST Wednesday 29 July 2015 (issued every 10 minutes, with the page automatically refreshed every 10 minutes)

About weather observations | Map of Adelaide area stations | Latest observations for Adelaide area | Other Formats
Station Details ID: 023842 Name: MOUNT LOFTY Lat: -34.98 Lon: 138.71 Height: 685.0 m
Data from the previous 72 hours. | See also: Recent months at Mount Lofty
Date/Time
CST
Tmp

°C
App
Tmp
°C
Dew
Point
°C
Rel
Hum
%
Delta-T

°C
Wind Press
QNH
hPa
Press
MSL
hPa
Rain
since
9 am
mm
Dir
 
Spd
km/h
Gust
km/h
Spd
kts
Gust
kts
29/09:00pm 6.7 0.3 0.8 66 2.4 NW 24 44 13 24 - - 0.0
29/08:30pm 6.8 0.9 1.5 69 2.2 NW 22 37 12 20 - - 0.0
29/08:00pm 6.7 1.3 2.4 74 1.8 NW 20 37 11 20 - - 0.0
29/07:30pm 6.7 1.2 1.6 70 2.2 NW 20 39 11 21 - - 0.0
29/07:00pm 6.6 0.6 1.3 69 2.2 NW 22 39 12 21 - - 0.0
29/06:30pm 6.5 0.6 1.6 71 2.1 NNW 22 37 12 20 - - 0.0
29/06:00pm 6.3 1.0 1.6 72 2.0 NW 19 32 10 17 - - 0.0
29/05:30pm 6.2 0.9 1.7 73 1.9 NNW 19 28 10 15 - - 0.0
29/05:00pm 6.5 2.0 2.2 74 1.8 NNW 15 24 8 13 - - 0.0
29/04:30pm 7.3 3.0 3.0 74 1.9 NNW 15 24 8 13 - - 0.0
29/04:00pm 6.7 1.8 2.0 72 2.0 NW 17 30 9 16 - - 0.0
29/03:30pm 7.7 2.4 2.0 67 2.5 NW 19 30 10 16 - - 0.0
29/03:00pm 7.8 2.3 1.9 66 2.5 NW 20 35 11 19 - - 0.0
29/02:30pm 7.4 1.9 2.1 69 2.3 NW 20 33 11 18 - - 0.0
29/02:00pm 6.5 0.3 2.0 73 1.9 NW 24 46 13 25 - - 0.0
29/01:30pm 6.3 0.4 1.8 73 1.9 NW 22 39 12 21 - - 0.0
29/01:00pm 6.0 0.2 2.3 77 1.6 NW 22 37 12 20 - - 0.0
29/12:30pm 6.1 0.6 1.8 74 1.8 NW 20 37 11 20 - - 0.0
29/12:00pm 6.1 0.8 1.8 74 1.8 NW 19 32 10 17 - - 0.0
29/11:30am 5.7 0.7 1.6 75 1.7 NW 17 30 9 16 - - 0.0
29/11:00am 5.7 0.7 1.6 75 1.7 NW 17 33 9 18 - - 0.0
29/10:30am 5.7 1.0 1.2 73 1.9 NW 15 24 8 13 - - 0.0
29/10:00am 5.3 0.6 1.1 74 1.7 NW 15 30 8 16 - - 0.0
29/09:30am 4.8 0.1 0.8 75 1.6 NW 15 32 8 17 - - 0.0
29/09:00am 4.7 -0.4 0.7 75 1.6 NW 17 24 9 13 - - 0.2
29/08:30am 4.7 -0.8 0.5 74 1.7 NW 19 30 10 16 - - 0.2
29/08:00am 4.8 -0.7 0.4 73 1.8 NW 19 33 10 18 - - 0.2
29/07:30am 5.1 -1.0 0.5 72 1.9 NW 22 37 12 20 - - 0.2
29/07:00am 5.4 -0.1 0.4 70 2.0 NNW 19 35 10 19 - - 0.2
29/06:30am 5.5 0.0 0.5 70 2.0 NNW 19 32 10 17 - - 0.2
29/06:00am 5.5 0.4 0.5 70 2.0 NNW 17 30 9 16 - - 0.2
29/05:30am 5.5 0.0 0.7 71 2.0 NNW 19 32 10 17 - - 0.2
29/05:00am 5.5 -0.2 0.7 71 2.0 NW 20 33 11 18 - - 0.2
29/04:30am 5.3 0.2 0.9 73 1.8 NW 17 30 9 16 - - 0.2
29/04:00am 5.0 0.7 0.9 75 1.7 NNW 13 22 7 12 - - 0.2
29/03:30am 5.2 1.2 0.6 72 1.9 N 11 24 6 13 - - 0.2
29/03:00am 5.3 1.0 0.9 73 1.8 N 13 28 7 15 - - 0.2
29/02:30am 5.4 1.1 0.8 72 1.9 N 13 28 7 15 - - 0.2
29/02:00am 5.5 1.6 1.2 74 1.8 NNE 11 26 6 14 - - 0.2
29/01:30am 5.4 1.9 1.0 73 1.8 NNE 9 20 5 11 - - 0.2
29/01:00am 5.5 1.6 1.1 73 1.8 N 11 20 6 11 - - 0.2
29/12:30am 5.5 1.6 1.4 75 1.7 NNE 11 20 6 11 - - 0.2
29/12:00am 5.5 1.7 2.0 78 1.5 NNE 11 17 6 9 - - 0.2
 
Date/Time
CST
Tmp

°C
App
Tmp
°C
Dew
Point
°C
Rel
Hum
%
Delta-T

°C
Wind Press
QNH
hPa
Press
MSL
hPa
Rain
since
9 am
mm
Dir
 
Spd
km/h
Gust
km/h
Spd
kts
Gust
kts
28/11:30pm 5.6 2.3 2.6 81 1.3 NNE 9 17 5 9 - - 0.2
28/11:00pm 5.4 2.9 3.7 89 0.7 NE 6 15 3 8 - - 0.2
28/10:30pm 5.5 3.4 4.0 90 0.7 ESE 4 9 2 5 - - 0.2
28/10:00pm 5.6 3.5 3.8 88 0.8 E 4 7 2 4 - - 0.2
28/09:30pm 5.4 3.2 3.6 88 0.8 E 4 9 2 5 - - 0.2
28/09:00pm 4.7 2.8 3.0 89 0.7 ESE 2 4 1 2 - - 0.2
28/08:30pm 5.3 3.4 2.7 83 1.1 ENE 2 6 1 3 - - 0.2
28/08:00pm 6.5 3.4 1.6 71 2.1 NNE 7 17 4 9 - - 0.2
28/07:30pm 6.5 3.4 1.6 71 2.1 NNE 7 11 4 6 - - 0.2
28/07:00pm 6.0 3.6 2.1 76 1.7 NNE 4 9 2 5 - - 0.2
28/06:30pm 6.0 3.6 2.1 76 1.7 N 4 6 2 3 - - 0.2
28/06:00pm 5.4 3.0 2.4 81 1.3 N 4 6 2 3 - - 0.2
28/05:30pm 5.4 4.1 4.1 91 0.6 CALM 0 0 0 0 - - 0.2
28/05:00pm 6.5 5.2 4.2 85 1.0 CALM 0 0 0 0 - - 0.2
28/04:30pm 6.3 5.0 4.1 86 1.0 CALM 0 0 0 0 - - 0.2
28/04:00pm 6.2 4.9 4.2 87 0.9 CALM 0 0 0 0 - - 0.2
28/03:30pm 7.1 5.9 4.6 84 1.1 CALM 0 0 0 0 - - 0.2
28/03:00pm 6.5 4.7 3.5 81 1.3 WSW 2 6 1 3 - - 0.2
28/02:30pm 5.8 3.8 4.3 90 0.7 WNW 4 6 2 3 - - 0.2
28/02:00pm 5.8 3.6 5.5 98 0.1 WNW 6 11 3 6 - - 0.2
28/01:30pm 5.5 3.7 5.2 98 0.1 NW 4 7 2 4 - - 0.2
28/01:00pm 5.3 3.0 5.0 98 0.1 NW 6 9 3 5 - - 0.2
28/12:30pm 5.0 2.7 4.7 98 0.1 WNW 6 7 3 4 - - 0.2
28/12:00pm 5.3 3.4 5.0 98 0.1 WNW 4 9 2 5 - - 0.2
28/11:30am 5.1 2.6 4.8 98 0.1 WNW 7 11 4 6 - - 0.2
28/11:00am 5.1 2.6 4.8 98 0.1 NW 7 11 4 6 - - 0.2
28/10:30am 5.3 2.8 5.0 98 0.1 WNW 7 13 4 7 - - 0.2
28/10:00am 5.1 2.2 4.8 98 0.1 NW 9 13 5 7 - - 0.2
28/09:30am 5.0 2.5 4.7 98 0.1 WNW 7 15 4 8 - - 0.0
28/09:00am 4.9 2.0 4.6 98 0.1 NW 9 13 5 7 - - 2.6
28/08:30am 5.0 2.5 4.7 98 0.1 WNW 7 11 4 6 - - 2.6
28/08:00am 4.8 2.4 4.5 98 0.1 WNW 6 9 3 5 - - 2.6
28/07:30am 4.8 2.3 4.5 98 0.1 WNW 7 13 4 7 - - 2.4
28/07:00am 4.8 2.3 4.5 98 0.1 WNW 7 11 4 6 - - 2.2
28/06:30am 4.7 2.1 4.4 98 0.1 WNW 7 9 4 5 - - 2.2
28/06:00am 4.6 2.2 4.3 98 0.1 WNW 6 7 3 4 - - 2.2
28/05:30am 4.6 2.0 4.3 98 0.1 WNW 7 11 4 6 - - 2.2
28/05:00am 4.3 1.8 4.0 98 0.1 WNW 6 11 3 6 - - 2.2
28/04:30am 4.7 2.1 4.4 98 0.1 WNW 7 13 4 7 - - 2.2
28/04:00am 4.5 2.1 4.2 98 0.1 W 6 9 3 5 - - 2.2
28/03:30am 4.5 1.9 4.2 98 0.1 WNW 7 11 4 6 - - 2.2
28/03:00am 4.6 2.2 4.3 98 0.1 W 6 11 3 6 - - 2.2
28/02:30am 4.7 2.7 4.4 98 0.1 WNW 4 11 2 6 - - 2.2
28/02:00am 4.7 2.1 4.4 98 0.1 WNW 7 9 4 5 - - 2.2
28/01:30am 4.9 2.6 4.6 98 0.1 WNW 6 11 3 6 - - 2.2
28/01:00am 4.8 2.3 4.5 98 0.1 WNW 7 13 4 7 - - 1.8
28/12:30am 4.9 2.6 4.6 98 0.1 WNW 6 17 3 9 - - 1.8
28/12:00am 4.9 2.6 4.6 98 0.1 WNW 6 13 3 7 - - 1.8
 
Date/Time
CST
Tmp

°C
App
Tmp
°C
Dew
Point
°C
Rel
Hum
%
Delta-T

°C
Wind Press
QNH
hPa
Press
MSL
hPa
Rain
since
9 am
mm
Dir
 
Spd
km/h
Gust
km/h
Spd
kts
Gust
kts
27/11:30pm 4.9 2.6 4.6 98 0.1 W 6 9 3 5 - - 1.6
27/11:00pm 4.8 2.4 4.5 98 0.1 W 6 11 3 6 - - 1.6
27/10:30pm 4.9 2.9 4.6 98 0.1 W 4 9 2 5 - - 1.6
27/10:00pm 4.7 2.3 4.4 98 0.1 W 6 9 3 5 - - 1.6
27/09:30pm 5.0 2.7 4.7 98 0.1 W 6 11 3 6 - - 1.6
27/09:00pm 5.0 2.7 4.7 98 0.1 W 6 9 3 5 - - 1.4
27/08:30pm 5.0 3.1 4.7 98 0.1 W 4 7 2 4 - - 1.4
27/08:00pm 4.9 2.6 4.6 98 0.1 W 6 11 3 6 - - 1.4
27/07:30pm 4.7 2.3 4.3 97 0.2 W 6 13 3 7 - - 1.2
27/07:00pm 4.8 2.4 4.4 97 0.2 WNW 6 11 3 6 - - 0.4
27/06:30pm 4.6 2.5 4.0 96 0.3 W 4 6 2 3 - - 0.4
27/06:00pm 4.9 2.9 4.2 95 0.3 W 4 7 2 4 - - 0.4
27/05:30pm 5.1 2.7 4.1 93 0.4 W 6 13 3 7 - - 0.2
27/05:00pm 5.8 3.2 4.3 90 0.7 WNW 7 13 4 7 - - 0.2
27/04:30pm 5.7 3.1 4.3 91 0.6 W 7 17 4 9 - - 0.2
27/04:00pm 5.9 3.7 5.2 95 0.3 W 6 11 3 6 - - 0.2
27/03:30pm 5.1 2.7 4.2 94 0.4 W 6 11 3 6 - - 0.2
27/03:00pm 5.5 3.0 3.7 88 0.8 W 6 13 3 7 - - 0.0
27/02:30pm 6.2 3.1 3.4 82 1.2 W 9 15 5 8 - - 0.0
27/02:00pm 5.8 3.4 5.1 95 0.3 W 7 13 4 7 - - 0.0
27/01:30pm 5.3 2.8 4.7 96 0.3 W 7 13 4 7 - - 0.0
27/01:00pm 4.6 2.2 4.2 97 0.2 W 6 9 3 5 - - 0.0
27/12:30pm 4.7 2.3 4.1 96 0.3 W 6 9 3 5 - - 0.0
27/12:00pm 5.1 2.7 4.4 95 0.3 W 6 9 3 5 - - 0.0
27/11:30am 5.4 2.9 4.5 94 0.4 WNW 7 13 4 7 - - 0.0
27/11:00am 5.4 2.5 4.7 95 0.3 WNW 9 17 5 9 - - 0.0
27/10:30am 5.5 3.3 5.2 98 0.1 W 6 13 3 7 - - 0.0
27/10:00am 4.8 2.4 4.5 98 0.1 W 6 11 3 6 - - 0.0
27/09:30am 4.5 2.1 4.2 98 0.1 W 6 9 3 5 - - 0.0
27/09:00am 4.0 1.5 3.7 98 0.1 W 6 11 3 6 - - 1.8
27/08:30am 3.5 1.3 3.2 98 0.1 W 4 6 2 3 - - 1.8
27/08:00am 3.6 1.4 3.3 98 0.1 WNW 4 7 2 4 - - 1.8
27/07:30am 3.6 1.0 3.3 98 0.1 W 6 11 3 6 - - 1.8
27/07:00am 3.5 0.9 3.2 98 0.1 W 6 9 3 5 - - 1.8
27/06:30am 3.2 0.5 2.8 97 0.2 W 6 9 3 5 - - 1.8
27/06:00am 3.3 0.5 2.9 97 0.2 W 7 15 4 8 - - 1.8
27/05:30am 3.4 0.6 3.1 98 0.1 W 7 13 4 7 - - 1.8
27/05:00am 3.1 0.2 2.8 98 0.1 W 7 17 4 9 - - 1.6
27/04:30am 3.1 0.2 2.8 98 0.1 W 7 13 4 7 - - 1.6
27/04:00am 3.1 0.2 2.8 98 0.1 WSW 7 15 4 8 - - 1.6
27/03:30am 3.2 0.4 2.9 98 0.1 WSW 7 13 4 7 - - 1.6
27/03:00am 3.3 0.5 3.0 98 0.1 W 7 15 4 8 - - 1.6
27/02:30am 3.3 0.5 3.0 98 0.1 W 7 17 4 9 - - 1.6
27/02:00am 3.1 0.2 2.7 97 0.2 WSW 7 15 4 8 - - 1.6
27/01:30am 3.1 0.2 2.7 97 0.2 WSW 7 13 4 7 - - 1.6
27/01:00am 3.2 -0.1 2.6 96 0.3 WSW 9 17 5 9 - - 1.6
27/12:30am 3.4 0.6 3.0 97 0.2 WSW 7 11 4 6 - - 1.4
27/12:00am 3.4 0.6 3.0 97 0.2 WSW 7 13 4 7 - - 1.4
 
Date/Time
CST
Tmp

°C
App
Tmp
°C
Dew
Point
°C
Rel
Hum
%
Delta-T

°C
Wind Press
QNH
hPa
Press
MSL
hPa
Rain
since
9 am
mm
Dir
 
Spd
km/h
Gust
km/h
Spd
kts
Gust
kts
26/11:30pm 3.2 0.4 2.9 98 0.1 WSW 7 13 4 7 - - 1.4
26/11:00pm 3.1 0.2 2.7 97 0.2 WSW 7 15 4 8 - - 1.4
26/10:30pm 2.9 0.0 2.5 97 0.2 WSW 7 13 4 7 - - 1.4
26/10:00pm 3.0 -0.3 2.4 96 0.2 WSW 9 19 5 10 - - 1.4
26/09:30pm 3.4 0.5 2.7 95 0.3 WSW 7 13 4 7 - - 1.0

Latest Capital City Observations: Canberra | Sydney | Melbourne | Brisbane | Adelaide | Perth | Hobart | Darwin

Other Formats:

Comma delimited format used in spreadsheet applications
http://www.bom.gov.au/fwo/IDS60901/IDS60901.95678.axf

JavaScript Object Notation format (JSON) in row-major order
http://www.bom.gov.au/fwo/IDS60901/IDS60901.95678.json